createdAt,value
2022-09-04T00:00:14.686Z,63.99
2022-09-04T00:02:51.495Z,64.09
2022-09-04T00:05:36.580Z,64.15
2022-09-04T00:08:28.866Z,64.17
2022-09-04T00:11:18.984Z,64.97
2022-09-04T00:13:51.418Z,64.33
2022-09-04T00:16:20.546Z,64.02
2022-09-04T00:19:03.914Z,64.01
2022-09-04T00:21:49.992Z,64.00
2022-09-04T00:24:29.008Z,63.20
2022-09-04T00:27:24.276Z,63.71
2022-09-04T00:30:02.530Z,63.69
2022-09-04T00:32:48.473Z,63.57
2022-09-04T00:35:23.548Z,63.80
2022-09-04T00:38:06.410Z,64.52
2022-09-04T00:40:47.825Z,64.07
2022-09-04T00:43:37.021Z,64.67
2022-09-04T00:46:22.811Z,65.06
2022-09-04T00:49:16.690Z,64.75
2022-09-04T00:52:15.130Z,64.72
2022-09-04T00:55:10.819Z,64.26
2022-09-04T00:58:00.557Z,64.70
2022-09-04T01:00:28.989Z,64.50
2022-09-04T01:03:20.884Z,64.62
2022-09-04T01:06:19.167Z,64.40
2022-09-04T01:09:05.149Z,64.45
2022-09-04T01:11:35.787Z,64.66
2022-09-04T01:14:13.367Z,64.20
2022-09-04T01:16:47.722Z,63.70
2022-09-04T01:19:29.022Z,63.65
2022-09-04T01:22:06.797Z,64.19
2022-09-04T01:24:43.722Z,63.90
2022-09-04T01:27:17.337Z,63.75
2022-09-04T01:30:08.158Z,64.13
2022-09-04T01:33:17.671Z,65.20
2022-09-04T01:35:56.154Z,65.47
2022-09-04T01:38:41.958Z,66.70
2022-09-04T01:41:24.424Z,64.98
2022-09-04T01:43:52.101Z,64.76
2022-09-04T01:46:43.958Z,64.60
2022-09-04T01:49:20.335Z,64.75
2022-09-04T01:52:00.324Z,64.16
2022-09-04T01:54:45.978Z,64.41
2022-09-04T01:57:34.852Z,64.67
2022-09-04T02:00:10.306Z,65.47
2022-09-04T02:02:57.133Z,65.10
2022-09-04T02:05:31.100Z,65.42
2022-09-04T02:08:17.347Z,65.73
2022-09-04T02:10:59.627Z,65.08
2022-09-04T02:13:34.200Z,64.06
2022-09-04T02:16:20.093Z,64.85
2022-09-04T02:19:19.897Z,64.53
2022-09-04T02:21:57.997Z,63.71
2022-09-04T02:24:46.983Z,64.50
2022-09-04T02:27:49.945Z,65.32
2022-09-04T02:30:18.853Z,64.60
2022-09-04T02:33:08.457Z,64.74
2022-09-04T02:35:36.099Z,65.32
2022-09-04T02:38:31.547Z,64.93
2022-09-04T02:40:59.246Z,64.71
2022-09-04T02:43:41.661Z,65.82
2022-09-04T02:46:17.681Z,65.24
2022-09-04T02:49:18.463Z,65.30
2022-09-04T02:51:56.423Z,64.36
2022-09-04T02:54:53.092Z,64.59
2022-09-04T02:57:40.746Z,64.51
2022-09-04T03:00:21.257Z,64.06
2022-09-04T03:03:17.521Z,64.05
2022-09-04T03:05:58.877Z,64.45
2022-09-04T03:08:36.986Z,65.43
2022-09-04T03:11:17.521Z,64.96
2022-09-04T03:14:09.885Z,64.75
2022-09-04T03:16:41.555Z,64.21
2022-09-04T03:19:21.406Z,64.52
2022-09-04T03:22:04.184Z,64.51
2022-09-04T03:24:50.147Z,65.08
2022-09-04T03:27:19.076Z,65.08
2022-09-04T03:30:01.369Z,65.33
2022-09-04T03:32:52.739Z,65.18
2022-09-04T03:35:37.849Z,64.70
2022-09-04T03:38:15.728Z,65.04
2022-09-04T03:41:11.849Z,64.89
2022-09-04T03:43:57.000Z,65.64
2022-09-04T03:46:30.907Z,64.98
2022-09-04T03:49:07.421Z,64.04
2022-09-04T03:51:53.688Z,64.27
2022-09-04T03:54:43.282Z,64.04
2022-09-04T03:57:35.826Z,64.48
2022-09-04T04:00:11.305Z,64.34
2022-09-04T04:03:03.356Z,64.84
2022-09-04T04:05:53.122Z,64.58
2022-09-04T04:08:42.345Z,64.65
2022-09-04T04:11:21.419Z,64.31
2022-09-04T04:13:58.171Z,65.20
2022-09-04T04:16:34.913Z,64.87
2022-09-04T04:19:20.702Z,63.86
2022-09-04T04:22:07.394Z,64.23
2022-09-04T04:24:57.530Z,64.04
2022-09-04T04:28:01.679Z,64.57
2022-09-04T04:30:44.906Z,64.62
2022-09-04T04:33:22.450Z,64.54
2022-09-04T04:35:57.437Z,63.95
2022-09-04T04:39:02.264Z,63.80
2022-09-04T04:42:06.611Z,63.79
2022-09-04T04:45:05.060Z,63.44
2022-09-04T04:47:48.513Z,63.74
2022-09-04T04:50:21.320Z,63.58
2022-09-04T04:53:21.239Z,63.56
2022-09-04T04:55:52.114Z,63.39
2022-09-04T04:58:45.091Z,63.58
2022-09-04T05:01:36.058Z,63.43
2022-09-04T05:04:30.128Z,63.26
2022-09-04T05:07:07.473Z,63.32
2022-09-04T05:09:42.557Z,62.58
2022-09-04T05:12:35.043Z,62.63
2022-09-04T05:15:13.685Z,62.81
2022-09-04T05:17:54.927Z,62.29
2022-09-04T05:20:49.888Z,62.51
2022-09-04T05:23:32.095Z,62.41
2022-09-04T05:26:11.157Z,62.29
2022-09-04T05:28:55.106Z,62.21
2022-09-04T05:31:43.603Z,62.60
2022-09-04T05:34:59.703Z,62.58
2022-09-04T05:37:45.357Z,62.18
2022-09-04T05:40:44.823Z,61.94
2022-09-04T05:43:39.350Z,61.89
2022-09-04T05:46:32.098Z,61.34
2022-09-04T05:49:41.165Z,61.83
2022-09-04T05:52:45.485Z,61.02
2022-09-04T05:55:17.562Z,61.45
2022-09-04T05:57:56.735Z,61.18
2022-09-04T06:00:24.900Z,61.30
2022-09-04T06:03:14.845Z,61.29
2022-09-04T06:06:10.769Z,61.63
2022-09-04T06:08:51.192Z,61.47
2022-09-04T06:11:44.155Z,61.55
2022-09-04T06:14:21.853Z,61.32
2022-09-04T06:17:12.860Z,61.30
2022-09-04T06:20:12.512Z,61.63
2022-09-04T06:23:18.172Z,62.07
2022-09-04T06:25:59.121Z,61.50
2022-09-04T06:29:08.662Z,61.53
2022-09-04T06:32:04.501Z,61.29
2022-09-04T06:35:04.309Z,60.75
2022-09-04T06:38:10.056Z,60.90
2022-09-04T06:41:13.456Z,60.60
2022-09-04T06:44:08.139Z,60.37
2022-09-04T06:46:59.030Z,60.00
2022-09-04T06:50:02.003Z,60.47
2022-09-04T06:53:07.431Z,59.01
2022-09-04T06:56:02.574Z,59.84
2022-09-04T06:58:56.055Z,59.58
2022-09-04T07:01:48.365Z,59.43
2022-09-04T07:04:41.715Z,59.73
2022-09-04T07:07:19.078Z,59.33
2022-09-04T07:09:50.600Z,59.27
2022-09-04T07:12:53.510Z,58.98
2022-09-04T07:15:43.972Z,59.23
2022-09-04T07:18:34.524Z,59.27
2022-09-04T07:21:18.959Z,58.87
2022-09-04T07:23:55.796Z,59.02
2022-09-04T07:26:30.136Z,58.75
2022-09-04T07:28:57.995Z,58.49
2022-09-04T07:31:34.795Z,58.22
2022-09-04T07:34:39.886Z,58.26
2022-09-04T07:37:34.218Z,57.97
2022-09-04T07:40:18.174Z,57.92
2022-09-04T07:42:52.484Z,57.48
2022-09-04T07:45:31.623Z,57.04
2022-09-04T07:48:20.114Z,57.71
2022-09-04T07:51:11.539Z,57.58
2022-09-04T07:53:48.674Z,57.19
2022-09-04T07:56:46.265Z,57.62
2022-09-04T07:59:29.153Z,57.50
2022-09-04T08:02:26.565Z,57.36
2022-09-04T08:05:14.832Z,57.57
2022-09-04T08:07:54.783Z,57.29
2022-09-04T08:10:22.843Z,57.31
2022-09-04T08:12:57.186Z,57.02
2022-09-04T08:15:52.677Z,56.83
2022-09-04T08:18:53.924Z,56.20
2022-09-04T08:21:36.975Z,56.13
2022-09-04T08:24:44.364Z,56.20
2022-09-04T08:27:15.414Z,56.46
2022-09-04T08:30:08.452Z,56.38
2022-09-04T08:33:11.144Z,56.02
2022-09-04T08:35:56.841Z,55.74
2022-09-04T08:38:55.667Z,55.84
2022-09-04T08:41:29.638Z,55.54
2022-09-04T08:44:38.968Z,55.65
2022-09-04T08:47:06.614Z,55.66
2022-09-04T08:49:54.325Z,55.51
2022-09-04T08:52:40.363Z,54.95
2022-09-04T08:55:47.052Z,54.81
2022-09-04T08:58:47.859Z,54.96
2022-09-04T09:01:35.913Z,55.22
2022-09-04T09:04:44.094Z,54.99
2022-09-04T09:07:33.943Z,54.97
2022-09-04T09:10:20.669Z,54.71
2022-09-04T09:13:10.597Z,54.51
2022-09-04T09:16:02.768Z,54.52
2022-09-04T09:18:41.789Z,54.39
2022-09-04T09:21:13.305Z,54.35
2022-09-04T09:23:47.215Z,55.10
2022-09-04T09:26:26.899Z,54.70
2022-09-04T09:29:10.138Z,54.40
2022-09-04T09:32:03.779Z,54.48
2022-09-04T09:35:08.966Z,54.11
2022-09-04T09:38:00.008Z,53.35
2022-09-04T09:40:43.364Z,53.80
2022-09-04T09:43:24.508Z,53.68
2022-09-04T09:46:29.719Z,53.71
2022-09-04T09:49:03.699Z,53.96
2022-09-04T09:52:30.710Z,53.51
2022-09-04T09:55:16.995Z,53.19
2022-09-04T09:58:07.687Z,52.88
2022-09-04T10:01:08.338Z,53.24
2022-09-04T10:03:55.433Z,53.21
2022-09-04T10:06:53.015Z,53.58
2022-09-04T10:09:59.333Z,53.33
2022-09-04T10:12:50.332Z,53.72
2022-09-04T10:15:48.507Z,53.90
2022-09-04T10:19:07.418Z,54.51
2022-09-04T10:22:00.262Z,54.38
2022-09-04T10:24:44.404Z,54.50
2022-09-04T10:27:34.866Z,54.50
2022-09-04T10:30:10.700Z,55.21
2022-09-04T10:32:51.353Z,55.26
2022-09-04T10:35:25.481Z,55.82
2022-09-04T10:38:34.764Z,55.97
2022-09-04T10:41:30.272Z,57.61
2022-09-04T10:44:20.126Z,59.86
2022-09-04T10:47:07.659Z,59.93
2022-09-04T10:50:17.515Z,59.74
2022-09-04T10:53:31.389Z,60.41
2022-09-04T10:56:21.101Z,60.77
2022-09-04T10:58:58.282Z,61.67
2022-09-04T11:01:38.186Z,61.96
2022-09-04T11:04:49.711Z,63.32
2022-09-04T11:07:46.899Z,64.35
2022-09-04T11:10:36.952Z,64.94
2022-09-04T11:13:55.246Z,63.84
2022-09-04T11:16:37.267Z,63.58
2022-09-04T11:19:34.007Z,62.62
2022-09-04T11:22:28.493Z,61.73
2022-09-04T11:25:43.030Z,61.09
2022-09-04T11:28:20.483Z,60.42
2022-09-04T11:30:54.215Z,60.13
2022-09-04T11:34:01.694Z,58.95
2022-09-04T11:36:43.724Z,58.42
2022-09-04T11:39:37.678Z,58.50
2022-09-04T11:42:26.829Z,57.14
2022-09-04T11:45:21.359Z,57.65
2022-09-04T11:47:58.402Z,57.45
2022-09-04T11:51:03.775Z,56.92
2022-09-04T11:53:43.644Z,56.46
2022-09-04T11:56:33.246Z,56.21
2022-09-04T11:59:10.682Z,55.30
2022-09-04T12:01:47.699Z,55.70
2022-09-04T12:04:57.032Z,55.61
2022-09-04T12:08:04.757Z,55.45
2022-09-04T12:10:56.824Z,55.48
2022-09-04T12:13:44.363Z,54.12
2022-09-04T12:16:44.596Z,53.16
2022-09-04T12:19:49.137Z,52.32
2022-09-04T12:22:36.949Z,51.75
2022-09-04T12:25:32.419Z,52.73
2022-09-04T12:28:29.337Z,51.45
2022-09-04T12:31:10.900Z,51.04
2022-09-04T12:34:19.659Z,51.07
2022-09-04T12:37:20.234Z,51.00
2022-09-04T12:40:07.324Z,50.17
2022-09-04T12:42:43.422Z,51.01
2022-09-04T12:45:46.065Z,50.63
2022-09-04T12:48:33.688Z,50.57
2022-09-04T12:51:14.301Z,48.49
2022-09-04T12:54:04.823Z,48.26
2022-09-04T12:56:49.011Z,49.67
2022-09-04T12:59:33.800Z,49.05
2022-09-04T13:02:24.473Z,49.90
2022-09-04T13:05:30.699Z,48.48
2022-09-04T13:07:59.220Z,47.92
2022-09-04T13:10:45.002Z,48.30
2022-09-04T13:13:23.485Z,47.67
2022-09-04T13:16:09.892Z,46.41
2022-09-04T13:18:41.306Z,46.21
2022-09-04T13:21:25.533Z,45.69
2022-09-04T13:24:11.824Z,45.88
2022-09-04T13:27:00.789Z,45.35
2022-09-04T13:29:41.883Z,46.32
2022-09-04T13:32:18.889Z,45.77
2022-09-04T13:35:41.342Z,46.87
2022-09-04T13:38:38.605Z,45.59
2022-09-04T13:41:18.811Z,45.31
2022-09-04T13:44:00.942Z,45.28
2022-09-04T13:46:35.436Z,43.61
2022-09-04T13:49:28.046Z,44.18
2022-09-04T13:52:34.527Z,43.47
2022-09-04T13:55:21.694Z,42.90
2022-09-04T13:58:14.161Z,41.89
2022-09-04T14:01:00.934Z,41.30
2022-09-04T14:03:47.705Z,41.72
2022-09-04T14:06:20.972Z,40.86
2022-09-04T14:08:57.949Z,40.63
2022-09-04T14:11:54.579Z,40.83
2022-09-04T14:14:43.807Z,40.03
2022-09-04T14:17:14.380Z,39.41
2022-09-04T14:20:00.062Z,40.85
2022-09-04T14:22:40.023Z,39.08
2022-09-04T14:25:17.591Z,40.30
2022-09-04T14:27:55.591Z,40.73
2022-09-04T14:30:25.192Z,41.33
2022-09-04T14:33:35.664Z,41.43
2022-09-04T14:36:16.762Z,42.02
2022-09-04T14:39:04.517Z,42.31
2022-09-04T14:41:45.232Z,42.40
2022-09-04T14:44:22.724Z,41.82
2022-09-04T14:47:02.712Z,42.41
2022-09-04T14:49:34.700Z,42.02
2022-09-04T14:52:21.910Z,42.10
2022-09-04T14:55:01.328Z,43.20
2022-09-04T14:57:44.753Z,42.92
2022-09-04T15:00:36.970Z,42.93
2022-09-04T15:03:23.160Z,43.01
2022-09-04T15:05:58.335Z,42.56
2022-09-04T15:08:40.200Z,42.63
2022-09-04T15:11:13.700Z,42.68
2022-09-04T15:14:00.310Z,42.92
2022-09-04T15:16:47.030Z,42.42
2022-09-04T15:19:36.101Z,41.99
2022-09-04T15:22:11.714Z,42.90
2022-09-04T15:25:04.296Z,42.48
2022-09-04T15:27:50.190Z,42.55
2022-09-04T15:30:29.634Z,43.06
2022-09-04T15:33:18.944Z,43.21
2022-09-04T15:36:04.531Z,43.26
2022-09-04T15:38:35.485Z,43.22
2022-09-04T15:41:22.304Z,43.09
2022-09-04T15:43:53.728Z,43.48
2022-09-04T15:46:40.977Z,43.24
2022-09-04T15:49:42.418Z,43.48
2022-09-04T15:52:25.413Z,43.98
2022-09-04T15:55:25.695Z,43.68
2022-09-04T15:58:53.470Z,42.90
2022-09-04T16:02:01.213Z,43.23
2022-09-04T16:04:57.738Z,45.03
2022-09-04T16:07:34.325Z,44.03
2022-09-04T16:10:19.111Z,44.95
2022-09-04T16:13:25.445Z,44.71
2022-09-04T16:16:10.126Z,45.10
2022-09-04T16:18:50.047Z,44.35
2022-09-04T16:21:29.141Z,45.15
2022-09-04T16:24:18.690Z,45.40
2022-09-04T16:26:53.435Z,45.09
2022-09-04T16:29:26.547Z,45.20
2022-09-04T16:31:57.432Z,45.84
2022-09-04T16:34:55.059Z,46.36
2022-09-04T16:37:31.795Z,47.19
2022-09-04T16:40:32.172Z,46.81
2022-09-04T16:43:03.136Z,47.17
2022-09-04T16:46:06.546Z,48.29
2022-09-04T16:48:54.672Z,48.20
2022-09-04T16:52:16.334Z,48.25
2022-09-04T16:55:03.626Z,48.16
2022-09-04T16:58:07.462Z,48.39
2022-09-04T17:01:14.162Z,48.57
2022-09-04T17:04:14.955Z,49.38
2022-09-04T17:07:04.394Z,49.84
2022-09-04T17:09:38.748Z,50.30
2022-09-04T17:12:22.079Z,50.80
2022-09-04T17:14:59.444Z,50.47
2022-09-04T17:17:32.338Z,50.23
2022-09-04T17:20:22.081Z,50.32
2022-09-04T17:28:55.422Z,50.94
2022-09-04T17:29:18.362Z,51.21
2022-09-04T17:29:43.114Z,51.05
2022-09-04T17:34:07.058Z,51.85
2022-09-04T17:40:52.230Z,53.38
2022-09-04T17:40:57.404Z,52.20
2022-09-04T17:42:08.455Z,52.91
2022-09-04T17:44:46.977Z,53.23
2022-09-04T17:47:34.771Z,53.47
2022-09-04T17:50:03.175Z,52.74
2022-09-04T17:52:53.020Z,53.26
2022-09-04T17:55:23.425Z,53.13
2022-09-04T17:58:06.521Z,52.60
2022-09-04T18:00:51.468Z,53.72
2022-09-04T18:03:27.377Z,53.60
2022-09-04T18:06:08.122Z,53.81
2022-09-04T18:09:11.115Z,53.92
2022-09-04T18:12:00.211Z,54.71
2022-09-04T18:14:38.348Z,55.85
2022-09-04T18:17:23.887Z,55.10
2022-09-04T18:19:58.891Z,55.28
2022-09-04T18:22:46.311Z,55.70
2022-09-04T18:25:44.805Z,56.39
2022-09-04T18:28:22.712Z,56.19
2022-09-04T18:37:07.125Z,56.61
2022-09-04T18:37:25.322Z,57.09
2022-09-04T18:37:46.598Z,57.39
2022-09-04T18:41:02.147Z,57.38
2022-09-04T18:50:29.725Z,57.20
2022-09-04T18:50:31.177Z,57.64
2022-09-04T18:50:32.727Z,58.20
2022-09-04T18:52:19.059Z,57.69
2022-09-04T18:54:57.367Z,57.54
2022-09-04T18:57:35.072Z,57.92
2022-09-04T19:00:12.959Z,57.94
2022-09-04T19:02:53.970Z,57.81
2022-09-04T19:05:27.160Z,56.75
2022-09-04T19:08:05.767Z,56.99
2022-09-04T19:10:51.380Z,57.20
2022-09-04T19:13:49.485Z,57.69
2022-09-04T19:16:38.940Z,57.54
2022-09-04T19:19:17.571Z,57.75
2022-09-04T19:21:57.894Z,57.52
2022-09-04T19:24:52.023Z,57.37
2022-09-04T19:27:32.244Z,56.48
2022-09-04T19:30:25.092Z,56.25
2022-09-04T19:33:03.390Z,56.25
2022-09-04T19:35:32.666Z,56.47
2022-09-04T19:42:54.344Z,56.47
2022-09-04T19:45:57.875Z,56.98
2022-09-04T19:46:15.955Z,57.62
2022-09-04T19:47:51.800Z,57.58
2022-09-04T19:53:18.952Z,57.52
2022-09-04T19:53:36.358Z,57.74
2022-09-04T19:56:15.627Z,57.98
2022-09-04T19:58:53.003Z,57.48
2022-09-04T20:01:26.659Z,57.70
2022-09-04T20:04:10.674Z,56.97
2022-09-04T20:06:47.751Z,57.77
2022-09-04T20:09:26.412Z,58.12
2022-09-04T20:12:40.443Z,58.28
2022-09-04T20:15:18.683Z,59.41
2022-09-04T20:18:10.662Z,58.96
2022-09-04T20:20:47.969Z,58.10
2022-09-04T20:23:37.636Z,58.88
2022-09-04T20:26:09.668Z,58.65
2022-09-04T20:29:16.543Z,58.82
2022-09-04T20:31:51.842Z,59.34
2022-09-04T20:34:29.974Z,58.53
2022-09-04T20:37:20.518Z,58.57
2022-09-04T20:40:15.203Z,58.11
2022-09-04T20:42:56.523Z,58.22
2022-09-04T20:47:11.362Z,58.69
2022-09-04T20:52:51.809Z,57.90
2022-09-04T20:52:52.230Z,57.90
2022-09-04T20:54:50.988Z,57.20
2022-09-04T21:02:23.137Z,57.24
2022-09-04T21:03:23.715Z,57.79
2022-09-04T21:03:57.391Z,57.36
2022-09-04T21:06:34.881Z,58.27
2022-09-04T21:09:11.038Z,58.14
2022-09-04T21:11:51.953Z,58.27
2022-09-04T21:14:44.909Z,57.41
2022-09-04T21:17:37.176Z,57.52
2022-09-04T21:20:16.788Z,57.59
2022-09-04T21:23:09.820Z,59.36
2022-09-04T21:26:22.008Z,60.81
2022-09-04T21:29:09.114Z,60.81
2022-09-04T21:32:00.073Z,59.97
2022-09-04T21:34:53.972Z,59.33
2022-09-04T21:38:17.689Z,59.83
2022-09-04T21:41:03.489Z,59.23
2022-09-04T21:44:11.183Z,59.50
2022-09-04T21:47:08.734Z,60.23
2022-09-04T21:49:42.439Z,59.85
2022-09-04T21:52:24.646Z,60.17
2022-09-04T21:56:38.101Z,59.78
2022-09-04T22:02:31.024Z,60.49
2022-09-04T22:02:36.660Z,60.24
2022-09-04T22:04:17.197Z,60.97
2022-09-04T22:10:26.219Z,60.89
2022-09-04T22:13:46.421Z,59.91
2022-09-04T22:13:46.653Z,60.44
2022-09-04T22:16:01.827Z,60.85
2022-09-04T22:19:16.288Z,60.79
2022-09-04T22:22:10.364Z,62.18
2022-09-04T22:25:06.371Z,62.09
2022-09-04T22:28:07.479Z,61.90
2022-09-04T22:31:11.319Z,62.30
2022-09-04T22:34:17.572Z,61.70
2022-09-04T22:37:23.110Z,61.41
2022-09-04T22:40:12.675Z,60.82
2022-09-04T22:43:02.530Z,62.10
2022-09-04T22:45:39.427Z,61.69
2022-09-04T22:48:49.159Z,62.12
2022-09-04T22:51:43.601Z,62.15
2022-09-04T22:54:23.265Z,61.98
2022-09-04T22:57:06.289Z,62.47
2022-09-04T22:59:55.572Z,62.26
2022-09-04T23:02:54.146Z,62.25
2022-09-04T23:05:39.977Z,62.91
2022-09-04T23:13:41.862Z,62.72
2022-09-04T23:13:49.607Z,62.27
2022-09-04T23:14:22.574Z,63.79
2022-09-04T23:17:05.198Z,62.70
2022-09-04T23:23:36.405Z,62.56
2022-09-04T23:26:50.176Z,63.14
2022-09-04T23:26:51.090Z,62.00
2022-09-04T23:29:41.096Z,61.90
2022-09-04T23:32:40.437Z,62.02
2022-09-04T23:35:40.588Z,63.00
2022-09-04T23:38:26.580Z,62.90
2022-09-04T23:41:25.420Z,63.35
2022-09-04T23:44:32.050Z,62.73
2022-09-04T23:47:46.864Z,63.56
2022-09-04T23:50:35.045Z,63.79
2022-09-04T23:53:08.512Z,64.58
2022-09-04T23:55:49.114Z,63.86
2022-09-04T23:59:03.181Z,64.52
